createdAt,value
2019-05-29T00:01:34.353Z,18.53
2019-05-29T00:04:02.979Z,18.54
2019-05-29T00:06:31.553Z,18.52
2019-05-29T00:09:00.202Z,18.52
2019-05-29T00:11:28.890Z,18.68
2019-05-29T00:13:57.481Z,18.71
2019-05-29T00:16:26.091Z,18.77
2019-05-29T00:18:58.186Z,18.65
2019-05-29T00:21:25.397Z,18.66
2019-05-29T00:23:53.964Z,18.75
2019-05-29T00:26:22.658Z,18.95
2019-05-29T00:28:51.236Z,18.93
2019-05-29T00:31:20.400Z,18.75
2019-05-29T00:33:49.094Z,18.66
2019-05-29T00:36:17.615Z,18.68
2019-05-29T00:38:46.257Z,18.80
2019-05-29T00:41:15.109Z,18.76
2019-05-29T00:43:43.914Z,18.52
2019-05-29T00:46:13.424Z,18.54
2019-05-29T00:48:42.167Z,18.51
2019-05-29T00:51:11.000Z,18.48
2019-05-29T00:53:39.686Z,18.47
2019-05-29T00:56:08.538Z,18.31
2019-05-29T00:58:37.194Z,18.38
2019-05-29T01:01:05.831Z,18.39
2019-05-29T01:03:36.094Z,18.20
2019-05-29T01:06:04.745Z,18.10
2019-05-29T01:08:33.388Z,18.13
2019-05-29T01:11:01.928Z,18.09
2019-05-29T01:13:30.581Z,18.14
2019-05-29T01:15:59.240Z,18.14
2019-05-29T01:18:28.167Z,18.47
2019-05-29T01:20:56.721Z,18.23
2019-05-29T01:23:25.374Z,18.42
2019-05-29T01:25:54.047Z,17.98
2019-05-29T01:28:23.143Z,17.98
2019-05-29T01:30:51.798Z,17.97
2019-05-29T01:33:23.331Z,17.71
2019-05-29T01:35:51.224Z,17.51
2019-05-29T01:38:19.906Z,17.78
2019-05-29T01:40:48.545Z,17.33
2019-05-29T01:43:17.515Z,17.65
2019-05-29T01:45:46.223Z,18.00
2019-05-29T01:48:15.408Z,17.74
2019-05-29T01:50:44.084Z,17.64
2019-05-29T01:53:13.310Z,17.86
2019-05-29T01:55:41.939Z,17.86
2019-05-29T01:58:10.607Z,17.78
2019-05-29T02:00:39.291Z,17.69
2019-05-29T02:03:07.934Z,17.69
2019-05-29T02:05:36.604Z,17.80
2019-05-29T02:08:05.297Z,17.66
2019-05-29T02:10:33.941Z,17.42
2019-05-29T02:13:03.154Z,17.47
2019-05-29T02:15:33.989Z,17.67
2019-05-29T02:18:02.281Z,17.71
2019-05-29T02:20:30.964Z,17.60
2019-05-29T02:22:59.684Z,17.60
2019-05-29T02:25:28.545Z,17.85
2019-05-29T02:27:57.122Z,17.78
2019-05-29T02:30:28.518Z,17.78
2019-05-29T02:32:56.222Z,18.00
2019-05-29T02:35:26.976Z,17.85
2019-05-29T02:37:55.290Z,17.65
2019-05-29T02:40:25.933Z,17.60
2019-05-29T02:42:54.656Z,17.82
2019-05-29T02:45:26.147Z,17.82
2019-05-29T02:47:53.638Z,17.66
2019-05-29T02:50:23.916Z,17.63
2019-05-29T02:52:52.744Z,17.63
2019-05-29T02:55:22.718Z,17.77
2019-05-29T02:57:51.434Z,17.72
2019-05-29T03:00:23.444Z,17.62
2019-05-29T03:02:52.550Z,17.62
2019-05-29T03:05:22.000Z,17.51
2019-05-29T03:07:50.672Z,17.52
2019-05-29T03:10:20.128Z,17.27
2019-05-29T03:12:48.865Z,17.42
2019-05-29T03:15:18.224Z,17.42
2019-05-29T03:17:46.938Z,17.44
2019-05-29T03:20:15.572Z,17.39
2019-05-29T03:22:44.248Z,17.56
2019-05-29T03:25:12.905Z,17.55
2019-05-29T03:27:41.476Z,17.64
2019-05-29T03:30:11.840Z,17.63
2019-05-29T03:32:47.364Z,17.51
2019-05-29T03:35:12.309Z,17.20
2019-05-29T03:37:40.920Z,17.48
2019-05-29T03:40:09.679Z,17.48
2019-05-29T03:42:38.960Z,17.62
2019-05-29T03:45:08.734Z,17.83
2019-05-29T03:47:37.502Z,18.03
2019-05-29T03:50:07.754Z,18.43
2019-05-29T03:52:36.571Z,18.19
2019-05-29T03:55:08.238Z,18.35
2019-05-29T03:57:38.159Z,18.89
2019-05-29T04:00:08.845Z,18.84
2019-05-29T04:02:38.412Z,19.24
2019-05-29T04:05:08.635Z,19.17
2019-05-29T04:07:38.136Z,18.69
2019-05-29T04:10:07.523Z,19.83
2019-05-29T04:12:38.086Z,20.65
2019-05-29T04:15:06.990Z,21.26
2019-05-29T04:17:37.872Z,21.95
2019-05-29T04:20:07.337Z,22.46
2019-05-29T04:22:39.563Z,23.23
2019-05-29T04:25:08.303Z,23.79
2019-05-29T04:27:39.887Z,23.58
2019-05-29T04:30:09.021Z,24.05
2019-05-29T04:32:38.663Z,23.74
2019-05-29T04:35:07.500Z,23.90
2019-05-29T04:37:36.972Z,23.57
2019-05-29T04:40:07.450Z,23.70
2019-05-29T04:42:37.647Z,23.59
2019-05-29T04:45:08.340Z,23.71
2019-05-29T04:47:37.386Z,23.40
2019-05-29T04:50:07.678Z,23.35
2019-05-29T04:52:37.861Z,23.03
2019-05-29T04:55:06.950Z,23.34
2019-05-29T04:57:35.617Z,23.40
2019-05-29T05:00:07.771Z,23.69
2019-05-29T05:02:37.274Z,23.60
2019-05-29T05:05:07.586Z,23.89
2019-05-29T05:07:37.352Z,24.18
2019-05-29T05:10:07.216Z,24.11
2019-05-29T05:12:37.830Z,23.79
2019-05-29T05:15:07.496Z,23.14
2019-05-29T05:17:36.226Z,21.82
2019-05-29T05:20:05.848Z,21.41
2019-05-29T05:22:34.498Z,21.73
2019-05-29T05:25:03.663Z,22.26
2019-05-29T05:27:32.310Z,22.91
2019-05-29T05:30:00.973Z,22.96
2019-05-29T05:32:30.570Z,23.36
2019-05-29T05:34:59.237Z,24.06
2019-05-29T05:37:27.886Z,24.25
2019-05-29T05:39:56.576Z,24.14
2019-05-29T05:42:25.232Z,24.41
2019-05-29T05:44:53.885Z,24.36
2019-05-29T05:47:22.586Z,23.96
2019-05-29T05:49:51.258Z,24.15
2019-05-29T05:52:19.989Z,24.75
2019-05-29T05:54:48.767Z,25.00
2019-05-29T05:57:17.466Z,24.76
2019-05-29T05:59:46.101Z,24.82
2019-05-29T06:02:20.012Z,24.67
2019-05-29T06:04:48.815Z,24.95
2019-05-29T06:07:17.487Z,24.50
2019-05-29T06:09:46.056Z,24.71
2019-05-29T06:12:14.759Z,25.32
2019-05-29T06:14:43.401Z,25.23
2019-05-29T06:17:12.129Z,25.03
2019-05-29T06:19:41.170Z,25.83
2019-05-29T06:22:09.947Z,25.97
2019-05-29T06:24:38.887Z,25.96
2019-05-29T06:27:07.568Z,26.10
2019-05-29T06:29:37.132Z,26.18
2019-05-29T06:32:05.812Z,25.17
2019-05-29T06:34:35.680Z,25.58
2019-05-29T06:37:04.350Z,25.91
2019-05-29T06:39:33.497Z,26.03
2019-05-29T06:42:02.170Z,25.79
2019-05-29T06:44:30.824Z,25.95
2019-05-29T06:46:59.469Z,26.23
2019-05-29T06:49:28.162Z,26.10
2019-05-29T06:51:56.806Z,25.85
2019-05-29T06:54:25.482Z,26.58
2019-05-29T06:56:54.178Z,26.00
2019-05-29T06:59:22.829Z,24.59
2019-05-29T07:01:51.606Z,25.43
2019-05-29T07:04:20.260Z,25.93
2019-05-29T07:06:49.101Z,26.11
2019-05-29T07:09:17.858Z,26.11
2019-05-29T07:11:47.541Z,26.65
2019-05-29T07:14:16.334Z,26.51
2019-05-29T07:16:54.875Z,26.75
2019-05-29T07:19:29.364Z,26.81
2019-05-29T07:21:52.185Z,27.37
2019-05-29T07:24:20.901Z,26.98
2019-05-29T07:26:49.591Z,25.77
2019-05-29T07:29:18.308Z,26.34
2019-05-29T07:31:47.330Z,26.92
2019-05-29T07:34:16.034Z,26.99
2019-05-29T07:36:45.988Z,26.68
2019-05-29T07:39:14.765Z,27.06
2019-05-29T07:41:43.711Z,27.25
2019-05-29T07:44:12.532Z,27.95
2019-05-29T07:46:42.261Z,27.93
2019-05-29T07:49:11.039Z,27.84
2019-05-29T07:51:40.503Z,26.47
2019-05-29T07:54:09.343Z,26.09
2019-05-29T07:56:38.363Z,26.00
2019-05-29T07:59:07.134Z,26.28
2019-05-29T08:01:35.795Z,26.28
2019-05-29T08:04:04.433Z,25.98
2019-05-29T08:06:33.115Z,25.56
2019-05-29T08:09:01.789Z,26.06
2019-05-29T08:11:30.471Z,27.06
2019-05-29T08:13:59.151Z,27.54
2019-05-29T08:16:27.870Z,27.26
2019-05-29T08:18:56.540Z,27.12
2019-05-29T08:21:25.294Z,26.86
2019-05-29T08:23:53.914Z,26.80
2019-05-29T08:26:22.653Z,26.82
2019-05-29T08:28:51.432Z,26.86
2019-05-29T08:31:20.085Z,26.86
2019-05-29T08:33:49.023Z,26.46
2019-05-29T08:36:17.720Z,26.38
2019-05-29T08:38:47.408Z,26.43
2019-05-29T08:41:16.111Z,26.09
2019-05-29T08:43:45.403Z,26.35
2019-05-29T08:46:15.226Z,26.67
2019-05-29T08:48:43.904Z,27.68
2019-05-29T08:51:12.628Z,27.71
2019-05-29T08:53:42.544Z,27.04
2019-05-29T08:56:11.569Z,27.88
2019-05-29T08:58:42.786Z,27.78
2019-05-29T09:01:11.702Z,27.70
2019-05-29T09:03:40.391Z,28.02
2019-05-29T09:06:11.519Z,28.70
2019-05-29T09:08:39.483Z,28.49
2019-05-29T09:11:08.139Z,27.80
2019-05-29T09:13:36.842Z,28.61
2019-05-29T09:16:05.489Z,28.31
2019-05-29T09:18:34.249Z,28.98
2019-05-29T09:21:04.248Z,29.57
2019-05-29T09:23:33.246Z,29.84
2019-05-29T09:26:14.285Z,28.87
2019-05-29T09:28:33.225Z,28.57
2019-05-29T09:31:01.808Z,29.15
2019-05-29T09:33:30.495Z,29.21
2019-05-29T09:35:59.334Z,28.69
2019-05-29T09:38:28.013Z,27.56
2019-05-29T09:40:56.694Z,27.02
2019-05-29T09:43:29.995Z,26.94
2019-05-29T09:45:55.878Z,26.97
2019-05-29T09:48:27.470Z,27.27
2019-05-29T09:50:55.044Z,27.24
2019-05-29T09:53:23.796Z,27.11
2019-05-29T09:55:54.171Z,27.26
2019-05-29T09:58:22.993Z,27.51
2019-05-29T10:01:09.558Z,27.57
2019-05-29T10:03:25.019Z,27.23
2019-05-29T10:05:57.286Z,27.72
2019-05-29T10:08:26.243Z,27.76
2019-05-29T10:11:02.669Z,28.68
2019-05-29T10:13:25.615Z,28.52
2019-05-29T10:15:55.951Z,28.53
2019-05-29T10:18:31.904Z,28.59
2019-05-29T10:20:56.503Z,28.14
2019-05-29T10:23:25.779Z,27.97
2019-05-29T10:25:56.406Z,27.62
2019-05-29T10:28:48.343Z,26.98
2019-05-29T10:31:03.106Z,27.35
2019-05-29T10:33:28.990Z,27.14
2019-05-29T10:38:48.652Z,27.80
2019-05-29T10:41:20.357Z,28.12
2019-05-29T10:43:54.194Z,27.93
2019-05-29T10:46:22.891Z,28.65
2019-05-29T10:48:54.205Z,28.80
2019-05-29T10:51:22.105Z,28.87
2019-05-29T10:53:53.098Z,27.85
2019-05-29T10:56:21.646Z,28.12
2019-05-29T10:58:56.203Z,28.32
2019-05-29T11:01:20.878Z,27.40
2019-05-29T11:03:52.149Z,27.35
2019-05-29T11:06:20.687Z,27.87
2019-05-29T11:08:49.996Z,28.28
2019-05-29T11:11:18.827Z,29.08
2019-05-29T11:13:48.645Z,28.42
2019-05-29T11:16:17.393Z,27.43
2019-05-29T11:18:47.371Z,27.51
2019-05-29T11:21:16.464Z,27.52
2019-05-29T11:23:45.113Z,27.02
2019-05-29T11:26:13.797Z,26.93
2019-05-29T11:28:42.505Z,27.18
2019-05-29T11:31:11.241Z,27.41
2019-05-29T11:33:40.101Z,27.18
2019-05-29T11:36:12.887Z,27.15
2019-05-29T11:38:39.270Z,27.22
2019-05-29T11:41:25.146Z,27.69
2019-05-29T11:43:38.765Z,28.13
2019-05-29T11:46:07.450Z,27.83
2019-05-29T11:48:36.127Z,27.89
2019-05-29T11:51:04.816Z,27.44
2019-05-29T11:53:33.510Z,27.11
2019-05-29T11:56:02.230Z,27.11
2019-05-29T11:58:31.871Z,27.47
2019-05-29T12:01:01.282Z,27.30
2019-05-29T12:03:29.990Z,27.16
2019-05-29T12:05:59.420Z,27.32
2019-05-29T12:08:30.828Z,27.31
2019-05-29T12:10:59.535Z,27.41
2019-05-29T12:13:28.352Z,27.59
2019-05-29T12:15:57.716Z,27.83
2019-05-29T12:18:26.449Z,28.15
2019-05-29T12:20:56.246Z,27.95
2019-05-29T12:23:27.041Z,27.83
2019-05-29T12:26:16.666Z,27.71
2019-05-29T12:28:25.708Z,27.28
2019-05-29T12:30:55.178Z,27.42
2019-05-29T12:33:23.964Z,27.48
2019-05-29T12:36:01.287Z,27.62
2019-05-29T12:38:29.922Z,27.92
2019-05-29T12:40:59.821Z,28.35
2019-05-29T12:43:28.556Z,29.00
2019-05-29T12:45:57.802Z,28.35
2019-05-29T12:48:26.559Z,27.79
2019-05-29T12:50:56.068Z,28.26
2019-05-29T12:53:30.112Z,28.40
2019-05-29T12:55:56.102Z,27.63
2019-05-29T12:58:24.866Z,28.39
2019-05-29T13:00:54.482Z,28.35
2019-05-29T13:03:23.255Z,27.39
2019-05-29T13:05:52.048Z,27.49
2019-05-29T13:08:20.713Z,27.52
2019-05-29T13:10:49.414Z,27.47
2019-05-29T13:13:18.299Z,27.55
2019-05-29T13:15:46.945Z,26.88
2019-05-29T13:18:15.577Z,26.75
2019-05-29T13:20:44.350Z,27.08
2019-05-29T13:23:13.154Z,27.12
2019-05-29T13:25:41.861Z,27.24
2019-05-29T13:28:10.534Z,27.16
2019-05-29T13:30:39.280Z,26.56
2019-05-29T13:33:09.038Z,26.75
2019-05-29T13:35:37.882Z,26.93
2019-05-29T13:38:07.368Z,26.58
2019-05-29T13:40:36.267Z,26.66
2019-05-29T13:43:13.968Z,27.07
2019-05-29T13:45:35.683Z,27.55
2019-05-29T13:48:05.428Z,27.60
2019-05-29T13:50:34.213Z,27.80
2019-05-29T13:53:03.542Z,27.89
2019-05-29T13:55:32.263Z,27.63
2019-05-29T13:58:01.668Z,27.08
2019-05-29T14:00:34.465Z,28.02
2019-05-29T14:03:02.469Z,27.80
2019-05-29T14:05:31.420Z,27.97
2019-05-29T14:08:00.611Z,27.54
2019-05-29T14:10:29.314Z,27.23
2019-05-29T14:12:58.924Z,27.30
2019-05-29T14:15:27.674Z,27.33
2019-05-29T14:17:56.331Z,27.38
2019-05-29T14:20:26.191Z,27.26
2019-05-29T14:22:54.941Z,27.25
2019-05-29T14:25:23.571Z,26.89
2019-05-29T14:27:52.288Z,27.13
2019-05-29T14:30:20.937Z,27.37
2019-05-29T14:32:49.643Z,27.47
2019-05-29T14:35:18.458Z,27.41
2019-05-29T14:37:47.120Z,27.44
2019-05-29T14:40:17.019Z,27.53
2019-05-29T14:42:45.756Z,26.96
2019-05-29T14:45:15.017Z,27.16
2019-05-29T14:47:43.680Z,26.74
2019-05-29T14:50:13.367Z,26.95
2019-05-29T14:52:42.168Z,27.26
2019-05-29T14:55:17.418Z,27.19
2019-05-29T14:57:41.530Z,27.27
2019-05-29T15:00:23.141Z,27.16
2019-05-29T15:02:42.859Z,27.20
2019-05-29T15:05:12.368Z,27.15
2019-05-29T15:07:41.996Z,26.88
2019-05-29T15:10:24.006Z,27.14
2019-05-29T15:12:41.665Z,27.11
2019-05-29T15:15:11.895Z,27.17
2019-05-29T15:17:41.289Z,26.84
2019-05-29T15:20:12.602Z,26.87
2019-05-29T15:22:40.833Z,26.55
2019-05-29T15:25:18.113Z,26.49
2019-05-29T15:27:40.413Z,26.44
2019-05-29T15:30:11.362Z,26.46
2019-05-29T15:32:40.788Z,26.30
2019-05-29T15:35:14.447Z,26.42
2019-05-29T15:37:41.242Z,26.52
2019-05-29T15:40:11.020Z,26.65
2019-05-29T15:42:39.821Z,26.66
2019-05-29T15:45:10.056Z,26.84
2019-05-29T15:47:38.719Z,26.96
2019-05-29T15:50:13.519Z,27.15
2019-05-29T15:52:42.673Z,27.35
2019-05-29T15:55:27.472Z,27.12
2019-05-29T15:57:42.124Z,27.22
2019-05-29T16:00:13.592Z,27.21
2019-05-29T16:02:42.434Z,27.22
2019-05-29T16:05:13.138Z,27.02
2019-05-29T16:07:41.913Z,26.96
2019-05-29T16:10:14.799Z,27.18
2019-05-29T16:12:43.019Z,27.26
2019-05-29T16:15:13.269Z,26.97
2019-05-29T16:17:42.048Z,26.90
2019-05-29T16:20:12.328Z,26.73
2019-05-29T16:22:42.041Z,26.82
2019-05-29T16:25:11.183Z,27.01
2019-05-29T16:27:39.972Z,27.04
2019-05-29T16:30:09.521Z,27.02
2019-05-29T16:32:38.297Z,26.84
2019-05-29T16:35:07.495Z,26.91
2019-05-29T16:37:36.128Z,26.73
2019-05-29T16:40:09.681Z,26.58
2019-05-29T16:42:38.585Z,26.72
2019-05-29T16:45:09.677Z,26.72
2019-05-29T16:47:38.514Z,26.69
2019-05-29T16:50:12.964Z,26.70
2019-05-29T16:52:41.773Z,26.80
2019-05-29T16:55:10.999Z,26.82
2019-05-29T16:57:39.747Z,26.58
2019-05-29T17:00:09.715Z,26.69
2019-05-29T17:02:39.092Z,26.83
2019-05-29T17:05:08.179Z,26.57
2019-05-29T17:07:36.942Z,26.69
2019-05-29T17:10:10.355Z,26.65
2019-05-29T17:12:39.137Z,26.39
2019-05-29T17:15:12.764Z,26.57
2019-05-29T17:17:41.508Z,26.43
2019-05-29T17:20:10.857Z,26.15
2019-05-29T17:22:39.541Z,26.05
2019-05-29T17:25:08.583Z,26.13
2019-05-29T17:27:37.277Z,25.83
2019-05-29T17:30:08.015Z,25.76
2019-05-29T17:32:36.668Z,25.67
2019-05-29T17:35:09.280Z,25.69
2019-05-29T17:37:38.176Z,25.40
2019-05-29T17:40:07.753Z,25.27
2019-05-29T17:42:36.590Z,25.20
2019-05-29T17:45:12.718Z,25.03
2019-05-29T17:47:41.949Z,24.98
2019-05-29T17:50:10.627Z,25.11
2019-05-29T17:52:39.256Z,25.03
2019-05-29T17:55:08.696Z,24.90
2019-05-29T17:57:37.437Z,24.87
2019-05-29T18:00:13.415Z,25.30
2019-05-29T18:02:51.445Z,25.31
2019-05-29T18:05:14.307Z,25.15
2019-05-29T18:07:43.147Z,25.04
2019-05-29T18:10:12.528Z,24.89
2019-05-29T18:12:41.353Z,24.71
2019-05-29T18:15:10.838Z,24.67
2019-05-29T18:17:39.498Z,24.47
2019-05-29T18:20:09.754Z,24.28
2019-05-29T18:22:39.131Z,24.33
2019-05-29T18:25:08.589Z,24.16
2019-05-29T18:27:37.232Z,23.79
2019-05-29T18:30:09.695Z,23.55
2019-05-29T18:32:52.377Z,23.70
2019-05-29T18:35:21.066Z,23.76
2019-05-29T18:37:49.723Z,23.76
2019-05-29T18:40:20.240Z,23.81
2019-05-29T18:42:49.007Z,23.64
2019-05-29T18:45:20.987Z,23.56
2019-05-29T18:47:48.465Z,23.62
2019-05-29T18:50:17.366Z,23.42
2019-05-29T18:52:45.956Z,23.76
2019-05-29T18:55:15.306Z,23.46
2019-05-29T18:57:44.603Z,23.48
2019-05-29T19:00:14.032Z,23.54
2019-05-29T19:02:47.638Z,23.54
2019-05-29T19:05:16.931Z,23.21
2019-05-29T19:07:45.667Z,23.21
2019-05-29T19:10:14.521Z,23.03
2019-05-29T19:12:43.359Z,23.02
2019-05-29T19:15:12.630Z,23.30
2019-05-29T19:17:41.303Z,22.85
2019-05-29T19:20:10.503Z,22.73
2019-05-29T19:22:39.162Z,22.62
2019-05-29T19:25:08.201Z,22.33
2019-05-29T19:27:41.318Z,22.32
2019-05-29T19:30:10.953Z,22.35
2019-05-29T19:32:39.607Z,22.16
2019-05-29T19:35:08.934Z,22.15
2019-05-29T19:37:37.570Z,22.05
2019-05-29T19:40:07.248Z,21.64
2019-05-29T19:42:35.961Z,21.64
2019-05-29T19:45:07.528Z,21.58
2019-05-29T19:47:36.171Z,21.51
2019-05-29T19:50:10.220Z,21.44
2019-05-29T19:52:37.047Z,21.44
2019-05-29T19:55:09.186Z,21.38
2019-05-29T19:57:52.492Z,21.29
2019-05-29T20:00:10.641Z,21.29
2019-05-29T20:02:39.986Z,21.15
2019-05-29T20:05:08.899Z,21.07
2019-05-29T20:07:37.766Z,21.03
2019-05-29T20:10:09.125Z,20.98
2019-05-29T20:12:38.271Z,20.97
2019-05-29T20:15:07.535Z,21.01
2019-05-29T20:17:36.324Z,20.94
2019-05-29T20:20:06.778Z,20.76
2019-05-29T20:22:36.777Z,20.74
2019-05-29T20:25:07.633Z,20.70
2019-05-29T20:27:36.494Z,20.80
2019-05-29T20:30:06.218Z,20.83
2019-05-29T20:32:34.925Z,20.71
2019-05-29T20:35:04.571Z,20.67
2019-05-29T20:37:34.064Z,20.63
2019-05-29T20:40:02.825Z,20.63
2019-05-29T20:42:32.139Z,20.68
2019-05-29T20:45:00.899Z,20.61
2019-05-29T20:47:29.597Z,20.69
2019-05-29T20:49:58.328Z,20.79
2019-05-29T20:52:27.129Z,20.63
2019-05-29T20:54:58.717Z,20.55
2019-05-29T20:57:26.512Z,20.51
2019-05-29T20:59:55.206Z,20.57
2019-05-29T21:02:23.980Z,20.48
2019-05-29T21:04:52.652Z,20.51
2019-05-29T21:07:21.301Z,20.55
2019-05-29T21:09:50.055Z,20.67
2019-05-29T21:12:18.703Z,20.63
2019-05-29T21:14:47.355Z,20.60
2019-05-29T21:17:16.028Z,20.55
2019-05-29T21:19:44.854Z,20.60
2019-05-29T21:22:13.553Z,20.50
2019-05-29T21:24:49.421Z,20.37
2019-05-29T21:27:12.699Z,20.51
2019-05-29T21:29:41.350Z,20.43
2019-05-29T21:32:10.057Z,20.57
2019-05-29T21:34:39.764Z,20.61
2019-05-29T21:37:08.464Z,20.59
2019-05-29T21:39:38.322Z,20.82
2019-05-29T21:42:07.222Z,20.92
2019-05-29T21:44:36.624Z,20.99
2019-05-29T21:47:05.357Z,21.08
2019-05-29T21:49:33.989Z,21.33
2019-05-29T21:52:02.704Z,20.83
2019-05-29T21:54:31.429Z,20.84
2019-05-29T21:57:00.083Z,20.74
2019-05-29T21:59:28.736Z,20.71
2019-05-29T22:01:57.424Z,20.62
2019-05-29T22:04:26.085Z,20.48
2019-05-29T22:06:54.726Z,20.58
2019-05-29T22:09:23.477Z,20.42
2019-05-29T22:11:52.274Z,20.22
2019-05-29T22:14:20.944Z,20.20
2019-05-29T22:16:50.884Z,20.11
2019-05-29T22:19:19.533Z,20.14
2019-05-29T22:21:48.127Z,20.27
2019-05-29T22:24:16.902Z,20.37
2019-05-29T22:26:45.631Z,20.47
2019-05-29T22:29:18.172Z,20.43
2019-05-29T22:31:44.775Z,20.51
2019-05-29T22:34:13.424Z,20.58
2019-05-29T22:36:42.074Z,20.55
2019-05-29T22:39:10.794Z,20.57
2019-05-29T22:41:39.449Z,20.52
2019-05-29T22:44:08.160Z,20.48
2019-05-29T22:46:36.867Z,20.40
2019-05-29T22:49:05.507Z,20.34
2019-05-29T22:51:34.189Z,20.51
2019-05-29T22:54:03.020Z,20.39
2019-05-29T22:56:31.672Z,20.51
2019-05-29T22:59:00.339Z,20.63
2019-05-29T23:01:29.048Z,20.59
2019-05-29T23:03:58.246Z,20.54
2019-05-29T23:06:26.924Z,20.59
2019-05-29T23:08:56.262Z,20.81
2019-05-29T23:11:24.985Z,20.53
2019-05-29T23:13:54.237Z,20.63
2019-05-29T23:16:22.931Z,20.66
2019-05-29T23:18:52.405Z,20.83
2019-05-29T23:21:21.126Z,20.84
2019-05-29T23:23:49.780Z,20.75
2019-05-29T23:26:18.434Z,20.76
2019-05-29T23:28:47.210Z,21.10
2019-05-29T23:31:15.854Z,20.93
2019-05-29T23:33:44.510Z,21.16
2019-05-29T23:36:13.201Z,21.01
2019-05-29T23:38:41.878Z,20.96
2019-05-29T23:41:10.525Z,20.79
2019-05-29T23:43:39.383Z,20.74
2019-05-29T23:46:08.043Z,20.93
2019-05-29T23:48:36.687Z,21.02
2019-05-29T23:51:05.405Z,21.08
2019-05-29T23:53:34.047Z,21.00
2019-05-29T23:56:03.890Z,20.60
2019-05-29T23:58:32.606Z,20.55
